Time;durP1;ratioP1;P1;durP2;ratioP2;P2;SDS_P1;SDS_P2;PMS_P1;PMS_P2;Temp;Humidity;BMP_temperature;BMP_pressure;BME280_temperature;BME280_humidity;BME280_pressure;Samples;Min_cycle;Max_cycle;Signal;HPM_P1;HPM_P2
2024/04/15 00:00:58;;;;;;;;;;;;;;;15.97;32.21;93424.09;3384460;26;1890;-69
2024/04/15 00:02:30;;;;;;;;;;;;;;;15.96;32.36;93427.13;3377434;26;958;-69
2024/04/15 00:04:02;;;;;;;;;;;;;;;15.97;32.41;93420.59;3377562;26;974;-69
2024/04/15 00:05:34;;;;;;;;;;;;;;;16.00;32.39;93427.28;3377462;26;1028;-69
2024/04/15 00:07:06;;;;;;;;;;;;;;;16.07;32.22;93422.97;3385246;26;1022;-69
2024/04/15 00:08:38;;;;;;;;;;;;;;;16.10;32.47;93427.75;3384468;26;1024;-69
2024/04/15 00:10:09;;;;;;;;;;;;;;;16.10;32.29;93433.16;3385298;26;966;-69
2024/04/15 00:11:41;;;;;;;;;;;;;;;16.09;32.43;93438.91;3385885;26;1031;-69
2024/04/15 00:13:13;;;;;;;;;;;;;;;16.07;32.55;93431.09;3385622;26;1444;-69
2024/04/15 00:14:45;;;;;;;;;;;;;;;16.08;32.49;93424.56;3384392;26;951;-69
2024/04/15 00:16:17;;;;;;;;;;;;;;;16.06;32.42;93432.19;3377386;26;998;-69
2024/04/15 00:17:51;;;;;;;;;;;;;;;16.03;32.44;93432.06;3377375;26;981;-69
2024/04/15 00:19:26;;;;;;;;;;;;;;;15.98;32.55;93433.03;3377571;26;1566;-69
2024/04/15 00:21:00;;;;;;;;;;;;;;;15.92;32.60;93421.56;3385297;26;1839;-69
2024/04/15 00:22:32;;;;;;;;;;;;;;;15.91;32.80;93427.31;3384277;26;982;-69
2024/04/15 00:24:04;;;;;;;;;;;;;;;15.90;32.62;93425.72;3385176;26;946;-69
2024/04/15 00:25:36;;;;;;;;;;;;;;;15.84;32.95;93421.56;3384195;26;1659;-69
2024/04/15 00:27:08;;;;;;;;;;;;;;;15.80;32.80;93417.94;3377032;26;1004;-69
2024/04/15 00:28:39;;;;;;;;;;;;;;;15.76;33.08;93425.09;3377438;26;1036;-69
2024/04/15 00:30:11;;;;;;;;;;;;;;;15.72;32.99;93430.34;3385249;26;1590;-69
2024/04/15 00:31:43;;;;;;;;;;;;;;;15.73;33.08;93433.84;3361992;26;958;-69
2024/04/15 00:33:15;;;;;;;;;;;;;;;15.71;33.16;93427.94;3354935;26;1005;-69
2024/04/15 00:34:49;;;;;;;;;;;;;;;15.68;33.02;93428.59;3348367;26;1021;-69
2024/04/15 00:36:21;;;;;;;;;;;;;;;15.64;33.05;93419.53;3378497;26;1136;-69
2024/04/15 00:37:54;;;;;;;;;;;;;;;15.62;33.17;93422.53;3385556;26;1051;-69
2024/04/15 00:39:26;;;;;;;;;;;;;;;15.62;33.31;93427.97;3383921;26;1218;-69
2024/04/15 00:40:57;;;;;;;;;;;;;;;15.60;33.14;93425.56;3384916;26;1141;-69
2024/04/15 00:42:29;;;;;;;;;;;;;;;15.61;32.94;93427.16;3385359;26;1828;-69
2024/04/15 00:44:01;;;;;;;;;;;;;;;15.60;32.92;93424.78;3384042;26;996;-69
2024/04/15 00:45:33;;;;;;;;;;;;;;;15.56;32.99;93421.94;3377022;26;927;-69
2024/04/15 00:47:05;;;;;;;;;;;;;;;15.53;33.13;93427.94;3384811;26;1035;-69
2024/04/15 00:48:37;;;;;;;;;;;;;;;15.46;33.00;93430.31;3383946;26;979;-69
2024/04/15 00:50:09;;;;;;;;;;;;;;;15.40;33.04;93436.19;3377062;26;1018;-69
2024/04/15 00:51:41;;;;;;;;;;;;;;;15.36;33.16;93432.53;3376739;26;1120;-69
2024/04/15 00:53:14;;;;;;;;;;;;;;;15.33;33.50;93431.28;3377028;26;1041;-69
2024/04/15 00:54:46;;;;;;;;;;;;;;;15.27;33.65;93429.81;3377294;26;1032;-69
2024/04/15 00:56:21;;;;;;;;;;;;;;;15.19;33.62;93423.31;3377188;26;979;-69
2024/04/15 00:57:52;;;;;;;;;;;;;;;15.11;33.45;93420.59;3377492;26;1515;-69
2024/04/15 00:59:24;;;;;;;;;;;;;;;15.04;33.59;93415.63;3376836;26;1005;-69
2024/04/15 01:00:57;;;;;;;;;;;;;;;15.05;34.04;93419.13;3376768;26;946;-69
2024/04/15 01:02:28;;;;;;;;;;;;;;;15.04;33.99;93421.03;3384544;26;1837;-69
2024/04/15 01:04:01;;;;;;;;;;;;;;;15.07;33.67;93417.72;3385152;26;963;-69
2024/04/15 01:05:33;;;;;;;;;;;;;;;15.09;33.65;93418.19;3383850;26;974;-69
2024/04/15 01:07:04;;;;;;;;;;;;;;;15.06;33.87;93423.44;3361614;26;968;-69
2024/04/15 01:08:37;;;;;;;;;;;;;;;15.02;33.95;93417.84;3369982;26;938;-69
2024/04/15 01:10:08;;;;;;;;;;;;;;;15.00;33.90;93422.00;3384720;26;991;-69
2024/04/15 01:11:41;;;;;;;;;;;;;;;14.96;33.59;93421.81;3385958;26;1006;-69
2024/04/15 01:13:12;;;;;;;;;;;;;;;14.97;33.78;93419.91;3387225;26;964;-69
2024/04/15 01:14:44;;;;;;;;;;;;;;;14.95;34.37;93432.94;3386121;26;1040;-69
2024/04/15 01:16:16;;;;;;;;;;;;;;;14.93;34.03;93429.75;3387262;26;1059;-69
2024/04/15 01:17:48;;;;;;;;;;;;;;;14.91;33.90;93430.06;3385935;26;1001;-69
2024/04/15 01:19:20;;;;;;;;;;;;;;;14.88;34.36;93420.72;3356603;26;1046;-69
2024/04/15 01:20:53;;;;;;;;;;;;;;;14.86;34.08;93419.41;3394357;26;1020;-69
2024/04/15 01:22:25;;;;;;;;;;;;;;;14.84;34.07;93419.72;3393786;26;1878;-69
2024/04/15 01:23:57;;;;;;;;;;;;;;;14.79;34.35;93419.88;3363568;26;1032;-69
2024/04/15 01:25:29;;;;;;;;;;;;;;;14.77;34.34;93421.31;3378995;26;959;-69
2024/04/15 01:27:01;;;;;;;;;;;;;;;14.73;34.21;93412.22;3386661;26;1009;-69
2024/04/15 01:28:33;;;;;;;;;;;;;;;14.69;34.61;93416.66;3387147;26;1023;-69
2024/04/15 01:30:05;;;;;;;;;;;;;;;14.67;34.59;93418.91;3386996;26;1042;-69
2024/04/15 01:31:39;;;;;;;;;;;;;;;14.66;34.88;93417.31;3385768;26;1496;-69
2024/04/15 01:33:11;;;;;;;;;;;;;;;14.62;34.88;93419.81;3386682;26;1010;-69
2024/04/15 01:34:43;;;;;;;;;;;;;;;14.63;34.94;93409.81;3363636;26;986;-69
2024/04/15 01:36:15;;;;;;;;;;;;;;;14.63;34.68;93409.81;3371860;26;1018;-69
2024/04/15 01:37:50;;;;;;;;;;;;;;;14.66;34.87;93403.81;3378495;26;1017;-69
2024/04/15 01:39:22;;;;;;;;;;;;;;;14.71;34.53;93409.84;3379229;26;1227;-69
2024/04/15 01:40:53;;;;;;;;;;;;;;;14.73;34.91;93407.63;3385679;26;1005;-69
2024/04/15 01:42:25;;;;;;;;;;;;;;;14.74;34.65;93405.72;3378433;26;1849;-69
2024/04/15 01:43:57;;;;;;;;;;;;;;;14.76;34.33;93404.31;3378590;26;994;-69
2024/04/15 01:45:29;;;;;;;;;;;;;;;14.73;34.74;93404.13;3378618;26;953;-69
2024/04/15 01:47:01;;;;;;;;;;;;;;;14.71;35.01;93404.44;3378795;26;957;-69
2024/04/15 01:48:33;;;;;;;;;;;;;;;14.70;34.99;93402.03;3378818;26;973;-69
2024/04/15 01:50:05;;;;;;;;;;;;;;;14.71;35.02;93401.72;3378758;26;1012;-69
2024/04/15 01:51:37;;;;;;;;;;;;;;;14.74;34.56;93401.13;3385685;26;1225;-69
2024/04/15 01:53:11;;;;;;;;;;;;;;;14.74;35.13;93400.31;3378636;26;1022;-69
2024/04/15 01:54:43;;;;;;;;;;;;;;;14.73;35.21;93407.63;3386440;26;958;-69
2024/04/15 01:56:15;;;;;;;;;;;;;;;14.70;35.30;93400.13;3386850;26;1007;-69
2024/04/15 01:57:46;;;;;;;;;;;;;;;14.72;34.95;93395.22;3363260;26;1017;-69
2024/04/15 01:59:18;;;;;;;;;;;;;;;14.70;35.12;93397.44;3371702;26;966;-69
2024/04/15 02:00:50;;;;;;;;;;;;;;;14.64;35.24;93393.31;3386664;26;958;-69
2024/04/15 02:02:22;;;;;;;;;;;;;;;14.62;35.03;93384.72;3385631;26;1845;-69
2024/04/15 02:03:57;;;;;;;;;;;;;;;14.56;34.99;93388.66;3378782;26;961;-69
2024/04/15 02:05:29;;;;;;;;;;;;;;;14.48;35.03;93384.03;3379094;26;1012;-69
2024/04/15 02:07:00;;;;;;;;;;;;;;;14.49;35.27;93378.31;3378435;26;1013;-69
2024/04/15 02:08:32;;;;;;;;;;;;;;;14.50;34.95;93376.41;3356294;26;1002;-69
2024/04/15 02:10:04;;;;;;;;;;;;;;;14.48;35.61;93375.91;3379389;26;1044;-69
2024/04/15 02:11:36;;;;;;;;;;;;;;;14.44;35.36;93378.47;3386645;26;974;-69
2024/04/15 02:13:08;;;;;;;;;;;;;;;14.43;35.31;93376.09;3386765;26;967;-69
2024/04/15 02:14:40;;;;;;;;;;;;;;;14.40;35.53;93382.91;3385368;26;963;-69
2024/04/15 02:16:12;;;;;;;;;;;;;;;14.40;35.29;93371.28;3386273;26;989;-69
2024/04/15 02:17:44;;;;;;;;;;;;;;;14.40;35.63;93368.59;3386772;26;1992;-69
2024/04/15 02:19:16;;;;;;;;;;;;;;;14.37;35.53;93363.78;3387015;26;1047;-69
2024/04/15 02:20:48;;;;;;;;;;;;;;;14.38;35.51;93368.06;3386616;26;1023;-69
2024/04/15 02:22:20;;;;;;;;;;;;;;;14.40;36.10;93369.41;3386143;26;1841;-69
2024/04/15 02:23:52;;;;;;;;;;;;;;;14.44;35.68;93364.19;3386910;26;968;-69
2024/04/15 02:25:24;;;;;;;;;;;;;;;14.39;36.10;93367.81;3385310;26;1019;-70
2024/04/15 02:26:56;;;;;;;;;;;;;;;14.39;35.99;93362.41;3378585;26;1537;-69
2024/04/15 02:28:28;;;;;;;;;;;;;;;14.30;35.42;93358.84;3356203;26;971;-69
2024/04/15 02:30:00;;;;;;;;;;;;;;;14.22;35.68;93367.69;3371691;26;1032;-69
2024/04/15 02:31:32;;;;;;;;;;;;;;;14.17;36.30;93363.25;3378593;26;978;-69
2024/04/15 02:33:04;;;;;;;;;;;;;;;14.12;36.35;93368.75;3356231;26;949;-69
2024/04/15 02:34:36;;;;;;;;;;;;;;;14.13;36.58;93373.06;3379184;26;997;-69
2024/04/15 02:36:08;;;;;;;;;;;;;;;14.18;36.02;93370.25;3386616;26;994;-69
2024/04/15 02:37:39;;;;;;;;;;;;;;;14.25;36.38;93363.56;3385370;26;1027;-69
2024/04/15 02:39:12;;;;;;;;;;;;;;;14.30;35.87;93369.66;3385450;26;1222;-69
2024/04/15 02:40:44;;;;;;;;;;;;;;;14.35;36.02;93368.69;3378276;26;1002;-69
2024/04/15 02:42:16;;;;;;;;;;;;;;;14.33;35.87;93371.72;3378559;26;1884;-69
2024/04/15 02:43:47;;;;;;;;;;;;;;;14.27;35.89;93366.75;3378526;26;1038;-69
2024/04/15 02:45:19;;;;;;;;;;;;;;;14.24;35.94;93376.28;3378187;26;1013;-69
2024/04/15 02:46:51;;;;;;;;;;;;;;;14.21;36.35;93366.13;3378382;26;976;-69
2024/04/15 02:48:23;;;;;;;;;;;;;;;14.16;36.46;93367.03;3378474;26;973;-69
2024/04/15 02:49:55;;;;;;;;;;;;;;;14.14;36.18;93365.75;3356173;26;1023;-69
2024/04/15 02:51:31;;;;;;;;;;;;;;;14.11;36.92;93367.16;3379161;26;1147;-69
2024/04/15 02:53:03;;;;;;;;;;;;;;;14.08;36.62;93357.03;3385465;26;1020;-69
2024/04/15 02:54:34;;;;;;;;;;;;;;;14.12;36.68;93357.16;3386117;26;954;-69
2024/04/15 02:56:07;;;;;;;;;;;;;;;14.15;36.60;93354.66;3386503;26;1005;-69
2024/04/15 02:57:38;;;;;;;;;;;;;;;14.16;36.84;93350.84;3385325;26;1022;-69
2024/04/15 02:59:10;;;;;;;;;;;;;;;14.14;36.78;93354.97;3386207;26;986;-69
2024/04/15 03:00:42;;;;;;;;;;;;;;;14.08;37.08;93357.03;3385242;26;996;-69
2024/04/15 03:02:15;;;;;;;;;;;;;;;14.05;36.68;93352.22;3386065;26;1837;-69
2024/04/15 03:03:46;;;;;;;;;;;;;;;14.01;36.86;93351.25;3386476;26;957;-69
2024/04/15 03:05:20;;;;;;;;;;;;;;;13.98;36.99;93351.09;3386373;26;968;-69
2024/04/15 03:06:52;;;;;;;;;;;;;;;13.99;37.20;93352.69;3385372;26;1013;-69
2024/04/15 03:08:24;;;;;;;;;;;;;;;13.99;36.60;93358.09;3386062;26;999;-69
2024/04/15 03:09:57;;;;;;;;;;;;;;;14.01;36.65;93350.44;3385192;26;974;-69
2024/04/15 03:11:29;;;;;;;;;;;;;;;13.98;36.77;93351.91;3378348;26;1001;-69
2024/04/15 03:13:01;;;;;;;;;;;;;;;13.96;36.98;93345.22;3378414;26;970;-69
2024/04/15 03:14:33;;;;;;;;;;;;;;;13.96;37.12;93343.31;3378346;26;1005;-69
2024/04/15 03:16:05;;;;;;;;;;;;;;;13.96;37.10;93350.59;3385852;26;950;-69
2024/04/15 03:17:50;;;;;;;;;;;;;;;13.91;36.59;93353.44;3385061;26;997;-69
2024/04/15 03:19:22;;;;;;;;;;;;;;;13.87;37.37;93352.47;3362769;26;1017;-69
2024/04/15 03:20:55;;;;;;;;;;;;;;;13.84;37.46;93353.88;3379105;26;1031;-69
2024/04/15 03:22:26;;;;;;;;;;;;;;;13.84;36.87;93356.56;3384960;26;1836;-69
2024/04/15 03:23:58;;;;;;;;;;;;;;;13.82;37.19;93364.19;3386002;26;1011;-69
2024/04/15 03:25:30;;;;;;;;;;;;;;;13.81;37.19;93357.19;3385005;26;961;-69
2024/04/15 03:27:02;;;;;;;;;;;;;;;13.78;37.04;93355.09;3355863;26;976;-69
2024/04/15 03:28:34;;;;;;;;;;;;;;;13.72;37.68;93356.34;3378079;26;967;-69
2024/04/15 03:30:06;;;;;;;;;;;;;;;13.68;37.46;93349.97;3400532;26;982;-69
2024/04/15 03:31:38;;;;;;;;;;;;;;;13.62;37.57;93356.63;3385180;26;941;-69
2024/04/15 03:33:09;;;;;;;;;;;;;;;13.59;37.31;93359.91;3385819;26;1032;-69
2024/04/15 03:34:41;;;;;;;;;;;;;;;13.58;37.51;93359.13;3383981;26;952;-69
2024/04/15 03:36:13;;;;;;;;;;;;;;;13.59;37.52;93362.63;3377865;26;1013;-69
2024/04/15 03:37:45;;;;;;;;;;;;;;;13.56;37.69;93358.63;3378040;26;982;-69
2024/04/15 03:39:16;;;;;;;;;;;;;;;13.52;37.51;93360.38;3355535;26;1239;-69
2024/04/15 03:40:48;;;;;;;;;;;;;;;13.44;37.59;93359.19;3370769;26;938;-69
2024/04/15 03:42:20;;;;;;;;;;;;;;;13.43;37.55;93362.22;3377796;26;1069;-69
2024/04/15 03:43:52;;;;;;;;;;;;;;;13.42;37.52;93364.09;3377835;26;1919;-69
2024/04/15 03:45:24;;;;;;;;;;;;;;;13.38;38.06;93365.00;3378088;26;1093;-69
2024/04/15 03:46:55;;;;;;;;;;;;;;;13.33;37.90;93365.94;3385697;26;964;-69
2024/04/15 03:48:27;;;;;;;;;;;;;;;13.32;37.94;93360.84;3362643;26;1227;-69
2024/04/15 03:49:59;;;;;;;;;;;;;;;13.31;38.20;93365.47;3370863;26;939;-69
2024/04/15 03:51:31;;;;;;;;;;;;;;;13.30;38.51;93363.84;3385439;26;1230;-69
2024/04/15 03:53:03;;;;;;;;;;;;;;;13.30;38.47;93366.56;3385195;26;1012;-69
2024/04/15 03:54:36;;;;;;;;;;;;;;;13.28;38.29;93365.25;3386017;26;1026;-69
2024/04/15 03:56:07;;;;;;;;;;;;;;;13.27;38.39;93364.47;3385935;26;1004;-69
2024/04/15 03:57:39;;;;;;;;;;;;;;;13.26;38.60;93368.25;3384568;26;1011;-69
2024/04/15 03:59:11;;;;;;;;;;;;;;;13.27;38.70;93364.47;3377412;26;953;-69
2024/04/15 04:00:43;;;;;;;;;;;;;;;13.25;38.14;93372.06;3377387;26;986;-69
2024/04/15 04:02:15;;;;;;;;;;;;;;;13.29;38.71;93370.34;3355354;26;967;-69
2024/04/15 04:03:46;;;;;;;;;;;;;;;13.27;38.56;93374.44;3370174;26;1892;-69
2024/04/15 04:05:18;;;;;;;;;;;;;;;13.20;38.37;93364.09;3385299;26;1037;-69
2024/04/15 04:06:50;;;;;;;;;;;;;;;13.14;38.62;93367.19;3384823;26;982;-69
2024/04/15 04:08:22;;;;;;;;;;;;;;;13.13;38.78;93369.06;3355513;26;1026;-69
2024/04/15 04:09:54;;;;;;;;;;;;;;;13.06;38.80;93363.31;3377591;26;977;-69
2024/04/15 04:11:26;;;;;;;;;;;;;;;12.97;38.87;93362.44;3385336;26;1051;-70
2024/04/15 04:12:58;;;;;;;;;;;;;;;12.91;38.71;93366.34;3384381;26;1167;-69
2024/04/15 04:14:30;;;;;;;;;;;;;;;12.89;38.89;93369.34;3377298;26;1006;-69
2024/04/15 04:16:02;;;;;;;;;;;;;;;12.95;39.20;93362.75;3377356;26;1026;-69
2024/04/15 04:17:34;;;;;;;;;;;;;;;12.99;39.16;93368.31;3355278;26;966;-69
2024/04/15 04:19:06;;;;;;;;;;;;;;;13.05;39.04;93359.81;3370294;26;997;-69
2024/04/15 04:20:38;;;;;;;;;;;;;;;13.12;38.97;93367.47;3377472;26;982;-69
2024/04/15 04:22:10;;;;;;;;;;;;;;;13.19;38.69;93359.00;3377431;26;1482;-69
2024/04/15 04:23:42;;;;;;;;;;;;;;;13.28;38.98;93360.66;3385112;26;1887;-69
2024/04/15 04:25:14;;;;;;;;;;;;;;;13.37;39.39;93358.81;3384221;26;964;-69
2024/04/15 04:26:46;;;;;;;;;;;;;;;13.50;38.97;93357.16;3354855;26;956;-69
2024/04/15 04:28:18;;;;;;;;;;;;;;;13.62;39.04;93356.63;3377243;26;1009;-70
2024/04/15 04:29:49;;;;;;;;;;;;;;;13.72;39.42;93362.53;3385147;26;976;-70
2024/04/15 04:31:21;;;;;;;;;;;;;;;13.77;39.42;93364.28;3385506;26;968;-69
2024/04/15 04:32:53;;;;;;;;;;;;;;;13.81;39.16;93357.19;3384206;26;958;-70
2024/04/15 04:34:25;;;;;;;;;;;;;;;13.85;39.29;93362.78;3377342;26;977;-70
2024/04/15 04:35:57;;;;;;;;;;;;;;;13.88;38.86;93362.16;3354755;26;997;-70
2024/04/15 04:37:29;;;;;;;;;;;;;;;13.88;39.20;93362.97;3392577;26;987;-70
2024/04/15 04:39:01;;;;;;;;;;;;;;;13.90;39.23;93360.72;3361800;26;1194;-70
2024/04/15 04:40:33;;;;;;;;;;;;;;;13.94;39.30;93367.09;3370115;26;1014;-69
2024/04/15 04:42:05;;;;;;;;;;;;;;;13.96;39.43;93367.59;3377247;26;1045;-70
2024/04/15 04:43:37;;;;;;;;;;;;;;;13.99;39.03;93369.69;3376785;26;1837;-70
2024/04/15 04:45:09;;;;;;;;;;;;;;;14.03;39.32;93364.44;3377137;26;1018;-70
2024/04/15 04:46:43;;;;;;;;;;;;;;;14.08;39.28;93369.72;3379179;26;990;-70
2024/04/15 04:48:15;;;;;;;;;;;;;;;14.15;39.20;93367.34;3379804;26;1044;-70
2024/04/15 04:49:51;;;;;;;;;;;;;;;14.23;39.69;93366.59;3386406;26;950;-70
2024/04/15 04:51:24;;;;;;;;;;;;;;;14.39;39.18;93364.28;3380233;26;1072;-70
2024/04/15 04:52:56;;;;;;;;;;;;;;;14.53;39.60;93365.78;3387171;26;994;-70
2024/04/15 04:54:28;;;;;;;;;;;;;;;14.64;39.30;93363.59;3386765;26;999;-70
2024/04/15 04:56:06;;;;;;;;;;;;;;;14.77;39.56;93368.06;3379657;26;1031;-70
2024/04/15 04:57:38;;;;;;;;;;;;;;;14.96;39.84;93361.56;3387833;26;1037;-70
2024/04/15 04:59:10;;;;;;;;;;;;;;;15.10;39.77;93354.13;3364764;26;1009;-70
2024/04/15 05:00:42;;;;;;;;;;;;;;;15.23;39.75;93358.56;3380281;26;947;-70
2024/04/15 05:02:14;;;;;;;;;;;;;;;15.35;39.38;93356.00;3386641;26;1023;-70
2024/04/15 05:03:47;;;;;;;;;;;;;;;15.49;39.39;93351.22;3387688;26;1840;-70
2024/04/15 05:05:19;;;;;;;;;;;;;;;15.66;39.57;93350.44;3364013;26;1471;-69
2024/04/15 05:06:51;;;;;;;;;;;;;;;15.83;39.54;93344.19;3372670;26;1005;-70
2024/04/15 05:08:22;;;;;;;;;;;;;;;16.01;39.53;93347.66;3357229;26;1069;-70
2024/04/15 05:09:54;;;;;;;;;;;;;;;16.21;39.53;93338.81;3372444;26;946;-71
2024/04/15 05:11:27;;;;;;;;;;;;;;;16.43;39.49;93348.59;3387094;26;934;-71
2024/04/15 05:12:59;;;;;;;;;;;;;;;16.63;39.53;93348.69;3387344;26;950;-71
2024/04/15 05:14:31;;;;;;;;;;;;;;;16.84;39.47;93347.94;3387594;26;1031;-71
2024/04/15 05:16:06;;;;;;;;;;;;;;;17.01;39.49;93345.13;3386224;26;1003;-71
2024/04/15 05:17:39;;;;;;;;;;;;;;;17.20;39.70;93348.16;3380321;26;1029;-71
2024/04/15 05:19:11;;;;;;;;;;;;;;;17.43;39.13;93340.47;3380605;26;982;-71
2024/04/15 05:20:43;;;;;;;;;;;;;;;17.70;39.57;93341.88;3379483;26;978;-71
2024/04/15 05:22:15;;;;;;;;;;;;;;;17.94;39.56;93341.16;3357343;26;989;-71
2024/04/15 05:23:48;;;;;;;;;;;;;;;18.13;39.01;93333.25;3364284;26;1870;-71
2024/04/15 05:25:19;;;;;;;;;;;;;;;18.19;39.26;93340.06;3379786;26;1006;-71
2024/04/15 05:26:53;;;;;;;;;;;;;;;18.25;38.92;93340.66;3387218;26;974;-71
2024/04/15 05:28:29;;;;;;;;;;;;;;;18.25;38.76;93344.16;3386387;26;1034;-71
2024/04/15 05:30:00;;;;;;;;;;;;;;;18.19;38.86;93339.25;3380320;26;994;-71
2024/04/15 05:31:32;;;;;;;;;;;;;;;18.10;39.20;93344.78;3379072;26;965;-71
2024/04/15 05:33:04;;;;;;;;;;;;;;;18.04;39.37;93341.53;3378803;26;954;-71
2024/04/15 05:34:37;;;;;;;;;;;;;;;18.01;38.92;93355.75;3387097;26;982;-72
2024/04/15 05:36:09;;;;;;;;;;;;;;;18.07;39.10;93346.25;3386088;26;960;-72
2024/04/15 05:37:41;;;;;;;;;;;;;;;18.14;39.28;93348.44;3387041;26;1052;-71
2024/04/15 05:39:12;;;;;;;;;;;;;;;18.21;38.75;93348.66;3387181;26;1143;-72
2024/04/15 05:40:44;;;;;;;;;;;;;;;18.27;38.63;93347.34;3387388;26;1000;-72
2024/04/15 05:42:16;;;;;;;;;;;;;;;18.34;38.53;93344.84;3385991;26;1010;-71
2024/04/15 05:43:47;;;;;;;;;;;;;;;18.42;39.00;93348.56;3378911;26;1878;-71
2024/04/15 05:45:19;;;;;;;;;;;;;;;18.52;38.89;93346.19;3379257;26;1015;-71
2024/04/15 05:46:51;;;;;;;;;;;;;;;18.58;39.05;93351.47;3379140;26;958;-72
2024/04/15 05:48:23;;;;;;;;;;;;;;;18.63;39.02;93348.50;3378802;26;1024;-72
2024/04/15 05:49:55;;;;;;;;;;;;;;;18.70;38.70;93354.97;3378887;26;989;-72
2024/04/15 05:51:27;;;;;;;;;;;;;;;18.74;38.96;93353.16;3378751;26;1202;-72
2024/04/15 05:52:58;;;;;;;;;;;;;;;18.77;39.08;93348.97;3378858;26;1001;-72
2024/04/15 05:54:30;;;;;;;;;;;;;;;18.86;38.86;93350.41;3379250;26;1032;-71
2024/04/15 05:56:02;;;;;;;;;;;;;;;19.06;38.61;93342.50;3379085;26;910;-72
2024/04/15 05:57:34;;;;;;;;;;;;;;;19.30;38.26;93349.81;3378581;26;1044;-72
2024/04/15 05:59:06;;;;;;;;;;;;;;;19.54;38.51;93342.38;3356908;26;1583;-71
2024/04/15 06:00:37;;;;;;;;;;;;;;;19.83;38.41;93335.81;3379932;26;1013;-71
2024/04/15 06:02:09;;;;;;;;;;;;;;;20.14;38.33;93334.28;3385622;26;1024;-72
2024/04/15 06:03:41;;;;;;;;;;;;;;;20.41;38.23;93338.91;3378609;26;1837;-71
2024/04/15 06:05:13;;;;;;;;;;;;;;;20.65;38.11;93341.44;3386302;26;1005;-72
2024/04/15 06:06:45;;;;;;;;;;;;;;;20.74;38.10;93341.28;3385275;26;1095;-72
2024/04/15 06:08:17;;;;;;;;;;;;;;;20.94;37.95;93331.22;3378482;26;1099;-71
2024/04/15 06:09:50;;;;;;;;;;;;;;;21.17;37.93;93336.81;3386362;26;1024;-72
2024/04/15 06:11:22;;;;;;;;;;;;;;;21.41;37.46;93339.31;3385484;26;1024;-72
2024/04/15 06:12:54;;;;;;;;;;;;;;;21.64;37.65;93333.94;3378806;26;976;-72
2024/04/15 06:14:26;;;;;;;;;;;;;;;21.76;37.74;93333.81;3378391;26;1010;-72
2024/04/15 06:15:58;;;;;;;;;;;;;;;21.85;37.47;93330.84;3378351;26;1033;-72
2024/04/15 06:17:30;;;;;;;;;;;;;;;21.84;37.39;93335.50;3378410;26;990;-72
2024/04/15 06:19:02;;;;;;;;;;;;;;;21.87;37.72;93326.59;3378498;26;975;-72
2024/04/15 06:20:34;;;;;;;;;;;;;;;21.87;37.42;93321.13;3386191;26;1028;-72
2024/04/15 06:22:06;;;;;;;;;;;;;;;21.93;37.19;93325.16;3385391;26;986;-72
2024/04/15 06:23:38;;;;;;;;;;;;;;;22.05;37.31;93316.81;3378199;26;981;-72
2024/04/15 06:25:10;;;;;;;;;;;;;;;22.17;36.96;93310.41;3355891;26;1880;-71
2024/04/15 06:26:41;;;;;;;;;;;;;;;22.30;36.98;93311.03;3393671;26;1045;-71
2024/04/15 06:28:13;;;;;;;;;;;;;;;22.39;36.15;93308.81;3363244;26;965;-72
2024/04/15 06:29:48;;;;;;;;;;;;;;;22.35;36.05;93314.22;3372368;26;1058;-72
2024/04/15 06:31:20;;;;;;;;;;;;;;;22.26;36.86;93319.16;3378714;26;1011;-71
2024/04/15 06:32:51;;;;;;;;;;;;;;;22.23;36.68;93310.91;3378269;26;1049;-71
2024/04/15 06:34:26;;;;;;;;;;;;;;;22.30;35.83;93306.34;3386154;26;906;-72
2024/04/15 06:35:58;;;;;;;;;;;;;;;22.37;35.74;93300.97;3386386;26;996;-71
2024/04/15 06:37:30;;;;;;;;;;;;;;;22.55;35.56;93304.03;3386588;26;953;-71
2024/04/15 06:39:02;;;;;;;;;;;;;;;22.67;35.70;93308.53;3386441;26;1159;-71
2024/04/15 06:40:33;;;;;;;;;;;;;;;22.87;35.45;93303.78;3386359;26;1039;-71
2024/04/15 06:42:05;;;;;;;;;;;;;;;23.00;35.35;93305.94;3386543;26;1032;-71
2024/04/15 06:43:37;;;;;;;;;;;;;;;23.10;35.30;93320.94;3363094;26;987;-71
2024/04/15 06:45:09;;;;;;;;;;;;;;;23.03;35.03;93310.66;3370711;26;1833;-71
2024/04/15 06:46:40;;;;;;;;;;;;;;;23.06;35.02;93309.16;3377978;26;1028;-71
2024/04/15 06:48:12;;;;;;;;;;;;;;;22.96;35.40;93309.78;3378073;26;1015;-71
2024/04/15 06:49:45;;;;;;;;;;;;;;;22.99;34.92;93309.03;3377988;26;966;-71
2024/04/15 06:51:16;;;;;;;;;;;;;;;23.09;34.73;93306.47;3378020;26;1166;-72
2024/04/15 06:52:48;;;;;;;;;;;;;;;23.21;34.13;93302.72;3378183;26;950;-71
2024/04/15 06:54:20;;;;;;;;;;;;;;;23.36;34.23;93300.97;3355901;26;979;-72
2024/04/15 06:55:52;;;;;;;;;;;;;;;23.53;34.37;93298.50;3371032;26;939;-72
2024/04/15 06:57:24;;;;;;;;;;;;;;;23.67;34.04;93297.09;3378061;26;1020;-72
2024/04/15 06:58:56;;;;;;;;;;;;;;;23.86;34.14;93294.97;3385967;26;1024;-72
2024/04/15 07:00:28;;;;;;;;;;;;;;;24.06;33.77;93301.06;3386224;26;1091;-72
2024/04/15 07:01:59;;;;;;;;;;;;;;;24.02;33.89;93300.25;3362813;26;1020;-72
2024/04/15 07:03:31;;;;;;;;;;;;;;;23.99;33.90;93294.72;3378738;26;1559;-71
2024/04/15 07:05:04;;;;;;;;;;;;;;;23.92;34.12;93313.84;3385049;26;1882;-71
2024/04/15 07:06:35;;;;;;;;;;;;;;;23.89;33.39;93301.66;3377852;26;1017;-71
2024/04/15 07:08:07;;;;;;;;;;;;;;;23.95;33.66;93302.88;3385818;26;982;-71
2024/04/15 07:09:39;;;;;;;;;;;;;;;23.91;33.20;93307.56;3384684;26;998;-72
2024/04/15 07:11:10;;;;;;;;;;;;;;;23.76;33.32;93301.13;3384884;26;963;-72
2024/04/15 07:12:42;;;;;;;;;;;;;;;23.72;33.79;93291.25;3355713;26;1014;-72
2024/04/15 07:14:14;;;;;;;;;;;;;;;23.73;33.48;93292.84;3378119;26;1109;-72
2024/04/15 07:15:46;;;;;;;;;;;;;;;23.70;33.08;93297.13;3377911;26;986;-72
2024/04/15 07:17:18;;;;;;;;;;;;;;;23.78;33.38;93298.00;3377873;26;953;-71
2024/04/15 07:18:49;;;;;;;;;;;;;;;23.94;33.20;93295.81;3385746;26;964;-71
2024/04/15 07:20:21;;;;;;;;;;;;;;;24.05;33.20;93290.47;3384795;26;1127;-71
2024/04/15 07:21:53;;;;;;;;;;;;;;;24.20;32.75;93289.44;3385643;26;1575;-71
2024/04/15 07:23:25;;;;;;;;;;;;;;;24.33;32.67;93292.75;3386071;26;945;-72
2024/04/15 07:25:02;;;;;;;;;;;;;;;24.47;32.78;93293.69;3386019;26;1879;-71
2024/04/15 07:26:34;;;;;;;;;;;;;;;24.65;32.64;93287.53;3386026;26;1005;-71
2024/04/15 07:28:06;;;;;;;;;;;;;;;24.71;32.41;93286.81;3386005;26;1027;-72
2024/04/15 07:29:38;;;;;;;;;;;;;;;24.79;32.35;93285.69;3384777;26;990;-71
2024/04/15 07:31:10;;;;;;;;;;;;;;;24.99;32.20;93293.72;3385697;26;997;-71
2024/04/15 07:32:42;;;;;;;;;;;;;;;25.01;32.11;93292.16;3384740;26;1038;-72
2024/04/15 07:34:14;;;;;;;;;;;;;;;25.05;32.10;93286.72;3355490;26;1056;-71
2024/04/15 07:35:52;;;;;;;;;;;;;;;25.20;31.89;93280.13;3378590;26;1104;-72
2024/04/15 07:37:24;;;;;;;;;;;;;;;25.30;31.84;93280.19;3386039;26;1002;-72
2024/04/15 07:38:56;;;;;;;;;;;;;;;25.36;32.07;93277.88;3385794;26;1246;-71
2024/04/15 07:40:28;;;;;;;;;;;;;;;25.43;31.81;93277.09;3384644;26;1035;-71
2024/04/15 07:41:59;;;;;;;;;;;;;;;25.41;31.58;93280.22;3385411;26;1000;-71
2024/04/15 07:43:31;;;;;;;;;;;;;;;25.43;31.59;93269.66;3384865;26;1043;-71
2024/04/15 07:45:03;;;;;;;;;;;;;;;25.52;31.62;93272.84;3377356;26;1837;-71
2024/04/15 07:46:35;;;;;;;;;;;;;;;25.57;31.69;93277.19;3377477;26;995;-71
2024/04/15 07:48:07;;;;;;;;;;;;;;;25.64;31.46;93269.00;3385461;26;994;-71
2024/04/15 07:49:40;;;;;;;;;;;;;;;25.59;31.62;93275.63;3384661;26;1030;-71
2024/04/15 07:51:11;;;;;;;;;;;;;;;25.55;31.54;93265.78;3377325;26;1173;-71
2024/04/15 07:52:43;;;;;;;;;;;;;;;25.58;31.33;93270.50;3377392;26;993;-71
2024/04/15 07:54:15;;;;;;;;;;;;;;;25.42;31.69;93262.56;3377468;26;1008;-71
2024/04/15 07:55:48;;;;;;;;;;;;;;;25.42;31.36;93265.31;3385365;26;1031;-71
2024/04/15 07:57:20;;;;;;;;;;;;;;;25.32;31.62;93260.56;3384427;26;986;-71
2024/04/15 07:58:52;;;;;;;;;;;;;;;25.28;31.36;93260.53;3385434;26;938;-71
2024/04/15 08:00:25;;;;;;;;;;;;;;;25.32;31.29;93266.84;3385790;26;1009;-72
2024/04/15 08:01:57;;;;;;;;;;;;;;;25.25;31.41;93263.28;3385638;26;1260;-71
2024/04/15 08:03:29;;;;;;;;;;;;;;;25.17;31.32;93265.19;3385682;26;1025;-71
2024/04/15 08:05:03;;;;;;;;;;;;;;;25.22;31.33;93258.56;3384545;26;1885;-71
2024/04/15 08:06:34;;;;;;;;;;;;;;;25.23;31.32;93258.16;3377747;26;999;-71
2024/04/15 08:08:06;;;;;;;;;;;;;;;25.29;31.16;93264.06;3385278;26;1048;-72